NCAR-RAP Real-Time Weather Data

Output produced by METARs form (23 June 2018  19:31 UTC)
found at http://weather.rap.ucar.edu/surface/
 
RJOA 231321Z 32002KT 5000 BCFG BR FEW000 SCT002 BKN030 18/16 Q1006 RMK 1ST000 3ST002 7SC030 A2972 FG BANK S AND SW-W
RJOA 231300Z VRB01KT 3500 BCFG BR FEW000 SCT002 BKN030 18/17 Q1007
RJOA 231209Z VRB01KT 2000 -RA BCFG BR FEW000 SCT002 BKN004 17/16 Q1007 RMK 1ST000 3ST002 5ST004 A2974 FG SE-S AND SW-W
RJOA 231200Z 00000KT 3000 -RA BCFG BR FEW000 BKN005 BKN030 17/16 Q1007
RJOA 231138Z VRB02KT 3000 -RA BCFG BR FEW000 SCT003 BKN005 18/17 Q1006 RMK 1ST000 3ST003 5ST005 A2973 FG S AND SW
RJOA 231124Z 23003KT 170V280 4500 -RA PRFG BR FEW000 BKN005 BKN035 18/16 Q1006 RMK 1ST000 5ST005 7SC035 A2972 FG BANK SW
RJOA 231110Z VRB02KT 7000 PRFG FEW000 BKN006 BKN035 18/16 Q1006 RMK 1ST000 5ST006 7SC035 A2972 FG BANK SW
RJOA 231100Z VRB02KT 9000 PRFG FEW000 SCT006 BKN035 18/16 Q1006
RJOA 231000Z 09005KT 9999 PRFG FEW000 BKN050 19/16 Q1005
RJOA 230900Z VRB02KT 9999 -RA FEW010 SCT030 BKN040 19/16 Q1005
RJOA 230800Z 21003KT 160V260 9999 FEW010 BKN040 20/17 Q1005
RJOA 230700Z 15003KT 080V210 8000 FEW008 BKN070 BKN/// 20/17 Q1005
RJOA 230600Z 18006KT 140V230 5000 BR FEW010 SCT040 BKN070 21/18 Q1004
RJOA 230500Z 14004KT 110V190 7000 FEW015 SCT025 BKN/// 22/17 Q1005
RJOA 230400Z 14004KT 8000 FEW010 SCT015 BKN/// 21/16 Q1005
RJOA 230300Z 14003KT 090V200 4500 -SHRA BCFG BR FEW000 SCT005 BKN010 20/18 Q1005
RJOA 230200Z VRB01KT 4500 -SHRA BCFG BR FEW000 SCT006 BKN030 20/18 Q1006
RJOA 230132Z 14004KT 100V160 4500 -SHRA BCFG BR FEW000 SCT010 BKN030 20/18 Q1006 RMK 1ST000 3CU010 6CU030 A2971 FG BANK SE AND S-SW
RJOA 230100Z 04003KT 340V100 7000 -SHRA BCFG FEW000 SCT020 BKN040 21/17 Q1006
RJOA 230000Z 05005KT 8000 -SHRA BCFG FEW000 SCT020 BKN040 20/17 Q1006
RJOA 222300Z 05005KT 8000 -SHRA BCFG FEW000 BKN015 BKN040 20/17 Q1006
RJOA 222200Z 01005KT 330V050 9999 -RA PRFG FEW000 SCT025 BKN100 18/16 Q1006
RJOA 222110Z 07008KT 050V120 9999 -RA FEW030 SCT060 BKN120 18/15 Q1006 RMK 1CU030 3SC060 7AC120 A2972
RJOA 221300Z 35001KT 9999 FEW035 BKN/// 22/13 Q1010
RJOA 221200Z VRB02KT 9999 FEW035 BKN/// 23/13 Q1010
RJOA 221100Z 36003KT 9999 FEW035 SCT050 BKN/// 23/15 Q1010
RJOA 221000Z 13002KT 9999 FEW035 SCT150 BKN/// 23/15 Q1010
RJOA 220900Z VRB02KT 9999 FEW040 SCT150 BKN/// 25/12 Q1009
RJOA 220800Z 14003KT 100V190 9999 FEW040 SCT150 BKN/// 25/12 Q1009
RJOA 220700Z 20003KT 160V260 9999 FEW040 BKN/// 27/13 Q1009
RJOA 220600Z VRB03KT 9999 FEW040 BKN/// 27/13 Q1009
RJOA 220500Z 17005KT 130V250 9999 FEW035 BKN/// 27/13 Q1009
RJOA 220400Z 10004KT 060V140 9999 FEW030 BKN/// 26/15 Q1010
RJOA 220300Z VRB02KT 9999 FEW020 BKN/// 25/15 Q1011
RJOA 220200Z 12003KT 9999 FEW020 BKN/// 24/13 Q1011
RJOA 220100Z 18003KT 130V220 9999 FEW020 BKN/// 23/18 Q1011
RJOA 220000Z VRB02KT 9999 FEW015 BKN/// 22/18 Q1011
RJOA 212300Z VRB02KT 8000 PRFG FEW000 BKN/// 20/18 Q1011
RJOA 212200Z 00000KT 8000 BCFG FEW000 BKN/// 19/17 Q1011
RJOA 212110Z 29002KT 8000 BCFG FEW000 BKN/// 18/17 Q1010 RMK 1ST000 A2985 FG BANK SE AND W
RJOA 211300Z VRB03KT CAVOK 21/17 Q1009
RJOA 211200Z VRB02KT 9999 FEW020 SCT/// 21/17 Q1009
RJOA 211100Z VRB01KT 9999 FEW020 BKN/// 22/17 Q1008
RJOA 211000Z 26001KT 9999 FEW025 BKN/// 22/16 Q1008
RJOA 210900Z 23003KT 180V280 9999 FEW025 SCT040 BKN/// 23/16 Q1007
RJOA 210800Z VRB03KT 9999 FEW025 BKN040 BKN/// 23/16 Q1006